Time;durP1;ratioP1;P1;durP2;ratioP2;P2;SDS_P1;SDS_P2;PMS_P1;PMS_P2;Temp;Humidity;BMP_temperature;BMP_pressure;BME280_temperature;BME280_humidity;BME280_pressure;Samples;Min_cycle;Max_cycle;Signal;HPM_P1;HPM_P2
2022/08/04 00:00:02;;;;;;;1.95;0.80;;;19.00;99.90;;;;;;4926738;28;20063;-81
2022/08/04 00:02:38;;;;;;;1.88;1.40;;;19.10;99.90;;;;;;4938779;28;20114;-82
2022/08/04 00:05:11;;;;;;;5.38;1.20;;;19.20;99.90;;;;;;4943494;28;20020;-83
2022/08/04 00:08:11;;;;;;;4.07;1.30;;;19.30;99.90;;;;;;4950078;28;20035;-80
2022/08/04 00:10:42;;;;;;;1.73;0.85;;;19.30;99.90;;;;;;4947836;28;20039;-83
2022/08/04 00:13:10;;;;;;;3.97;1.30;;;19.40;99.90;;;;;;4949226;28;20051;-76
2022/08/04 00:15:38;;;;;;;3.85;0.60;;;19.50;99.90;;;;;;4951503;28;20113;-81
2022/08/04 00:18:08;;;;;;;2.90;1.17;;;19.60;99.90;;;;;;4940862;28;20031;-82
2022/08/04 00:20:39;;;;;;;4.32;0.70;;;19.60;99.90;;;;;;4943666;28;20074;-82
2022/08/04 00:23:08;;;;;;;4.05;0.68;;;19.70;99.90;;;;;;4949114;28;20031;-81
2022/08/04 00:25:40;;;;;;;1.98;0.60;;;19.80;99.90;;;;;;4945069;28;20031;-79
2022/08/04 00:28:08;;;;;;;1.58;0.60;;;19.90;99.90;;;;;;4947597;28;20514;-80
2022/08/04 00:30:36;;;;;;;2.80;1.13;;;19.90;99.90;;;;;;4942985;28;20023;-81
2022/08/04 00:33:03;;;;;;;1.77;0.80;;;20.00;99.90;;;;;;4943064;28;20043;-86
2022/08/04 00:35:32;;;;;;;1.77;0.45;;;20.00;99.90;;;;;;4942487;28;20083;-81
2022/08/04 00:38:00;;;;;;;1.70;0.98;;;20.00;99.90;;;;;;4939637;28;21945;-78
2022/08/04 00:40:39;;;;;;;2.55;0.85;;;20.00;99.90;;;;;;4937419;28;20022;-80
2022/08/04 00:43:56;;;;;;;6.85;1.08;;;19.90;99.90;;;;;;4941174;28;20463;-78
2022/08/04 00:47:00;;;;;;;3.30;0.88;;;19.80;99.90;;;;;;4926038;28;20039;-79
2022/08/04 00:49:45;;;;;;;2.25;0.98;;;19.70;99.90;;;;;;4942822;28;20597;-83
2022/08/04 00:52:24;;;;;;;2.72;0.80;;;19.60;99.90;;;;;;4944143;28;20474;-80
2022/08/04 00:55:10;;;;;;;2.35;0.70;;;19.70;99.90;;;;;;4941005;28;20039;-79
2022/08/04 00:58:00;;;;;;;2.00;0.80;;;19.70;99.90;;;;;;4958861;28;20478;-78
2022/08/04 01:00:37;;;;;;;3.58;0.73;;;19.70;99.90;;;;;;4947095;28;20095;-82
2022/08/04 01:03:23;;;;;;;2.78;1.05;;;19.70;99.90;;;;;;4935067;28;20019;-81
2022/08/04 01:06:17;;;;;;;2.95;1.10;;;19.70;99.90;;;;;;4938436;28;20129;-78
2022/08/04 01:09:09;;;;;;;2.78;0.75;;;19.80;99.90;;;;;;4937309;28;20023;-81
2022/08/04 01:11:54;;;;;;;5.13;0.98;;;19.80;99.90;;;;;;4939929;28;20034;-77
2022/08/04 01:15:05;;;;;;;3.40;1.13;;;19.90;99.90;;;;;;4918109;29;20039;-83
2022/08/04 01:18:13;;;;;;;3.20;0.88;;;19.80;99.90;;;;;;4925053;28;20289;-84
2022/08/04 01:21:05;;;;;;;1.60;0.60;;;19.80;99.90;;;;;;4929877;28;20047;-79
2022/08/04 01:23:42;;;;;;;3.72;0.65;;;19.80;99.90;;;;;;4950938;28;20447;-84
2022/08/04 01:26:42;;;;;;;1.63;0.80;;;19.90;99.90;;;;;;4945217;28;20023;-83
2022/08/04 01:29:12;;;;;;;2.78;0.80;;;19.90;99.90;;;;;;4930786;28;20034;-83
2022/08/04 01:31:58;;;;;;;2.50;0.90;;;20.00;99.90;;;;;;4942141;28;20041;-83
2022/08/04 01:34:33;;;;;;;3.30;0.80;;;20.10;99.90;;;;;;4944276;28;20074;-80
2022/08/04 01:37:11;;;;;;;2.85;1.13;;;20.10;99.90;;;;;;4948040;28;20103;-81
2022/08/04 01:39:59;;;;;;;0.43;0.30;;;20.20;99.90;;;;;;4948055;28;20387;-83
2022/08/04 01:42:32;;;;;;;0.57;0.40;;;20.20;99.90;;;;;;4946135;28;20405;-88
2022/08/04 01:45:11;;;;;;;1.83;0.40;;;20.30;99.90;;;;;;4944752;28;20383;-92
2022/08/04 01:47:50;;;;;;;1.60;0.77;;;20.30;99.90;;;;;;4947593;28;20470;-82
2022/08/04 01:50:19;;;;;;;2.33;0.65;;;20.30;99.90;;;;;;4954305;28;20015;-89
2022/08/04 01:52:47;;;;;;;2.10;0.60;;;20.30;99.90;;;;;;4947045;28;20054;-87
2022/08/04 01:55:16;;;;;;;2.22;0.50;;;20.30;99.90;;;;;;4950578;28;20490;-84
2022/08/04 01:57:47;;;;;;;0.60;0.40;;;20.30;99.90;;;;;;4947449;28;20348;-83
2022/08/04 02:00:20;;;;;;;1.13;0.40;;;20.30;99.90;;;;;;4948698;28;20526;-77
2022/08/04 02:02:50;;;;;;;3.13;0.60;;;20.40;99.90;;;;;;4943975;28;20035;-84
2022/08/04 02:05:20;;;;;;;1.70;0.63;;;20.40;99.90;;;;;;4945836;28;20039;-75
2022/08/04 02:08:14;;;;;;;1.77;0.50;;;20.40;99.90;;;;;;4951829;28;20063;-74
2022/08/04 02:11:00;;;;;;;2.53;0.45;;;20.40;99.90;;;;;;4952597;28;20039;-75
2022/08/04 02:13:53;;;;;;;1.73;0.30;;;20.40;99.90;;;;;;4945608;28;20128;-79
2022/08/04 02:16:42;;;;;;;2.72;0.40;;;20.30;99.90;;;;;;4952196;28;20419;-77
2022/08/04 02:19:13;;;;;;;0.55;0.40;;;20.30;99.90;;;;;;4954255;28;20039;-76
2022/08/04 02:21:41;;;;;;;2.38;0.40;;;20.30;99.90;;;;;;4947530;28;20053;-75
2022/08/04 02:24:13;;;;;;;2.28;0.50;;;20.30;99.90;;;;;;4948156;28;20077;-77
2022/08/04 02:26:45;;;;;;;1.67;0.50;;;20.20;99.90;;;;;;4948312;28;20565;-76
2022/08/04 02:29:48;;;;;;;1.85;0.45;;;20.20;99.90;;;;;;4939475;28;20432;-77
2022/08/04 02:32:28;;;;;;;0.55;0.38;;;20.20;99.90;;;;;;4934140;28;20057;-79
2022/08/04 02:35:05;;;;;;;1.70;0.70;;;20.20;99.90;;;;;;4947228;28;20529;-77
2022/08/04 02:37:35;;;;;;;0.40;0.20;;;20.10;99.90;;;;;;4944668;28;20130;-75
2022/08/04 02:40:05;;;;;;;2.25;0.82;;;20.20;99.90;;;;;;4952341;28;20030;-77
2022/08/04 02:42:34;;;;;;;2.92;0.47;;;20.20;99.90;;;;;;4956558;28;20031;-78
2022/08/04 02:45:04;;;;;;;0.63;0.25;;;20.20;99.90;;;;;;4956438;28;20393;-79
2022/08/04 02:47:33;;;;;;;1.80;0.50;;;20.20;99.90;;;;;;4953511;28;20038;-85
2022/08/04 02:50:02;;;;;;;0.63;0.30;;;20.20;99.90;;;;;;4948778;28;20507;-77
2022/08/04 02:52:30;;;;;;;0.50;0.30;;;20.30;99.90;;;;;;4946136;28;20133;-75
2022/08/04 02:55:01;;;;;;;1.38;0.30;;;20.40;99.90;;;;;;4942072;28;20162;-77
2022/08/04 02:57:31;;;;;;;0.60;0.20;;;20.50;99.90;;;;;;4954459;28;20042;-77
2022/08/04 03:00:08;;;;;;;0.65;0.30;;;20.50;99.90;;;;;;4944200;28;20035;-86
2022/08/04 03:02:56;;;;;;;1.88;0.80;;;20.50;99.90;;;;;;4927297;28;20650;-88
2022/08/04 03:05:50;;;;;;;1.00;0.30;;;20.50;99.90;;;;;;4937703;28;20578;-79
2022/08/04 03:08:38;;;;;;;4.28;0.32;;;20.50;99.90;;;;;;4941126;28;20103;-78
2022/08/04 03:11:22;;;;;;;0.95;0.35;;;20.40;99.90;;;;;;4938803;28;20094;-80
2022/08/04 03:14:13;;;;;;;2.92;0.63;;;20.40;99.90;;;;;;4947768;28;21546;-77
2022/08/04 03:17:04;;;;;;;0.52;0.20;;;20.30;99.90;;;;;;4943246;28;20031;-81
2022/08/04 03:20:09;;;;;;;1.15;0.40;;;20.30;99.90;;;;;;4947111;28;20042;-77
2022/08/04 03:23:00;;;;;;;0.95;0.30;;;20.30;99.90;;;;;;4949540;28;20074;-81
2022/08/04 03:26:01;;;;;;;0.80;0.35;;;20.20;99.90;;;;;;4942386;28;20482;-75
2022/08/04 03:29:07;;;;;;;0.60;0.40;;;20.20;99.90;;;;;;4948478;28;20050;-82
2022/08/04 03:31:58;;;;;;;2.17;0.35;;;20.20;99.90;;;;;;4955043;28;20050;-81
2022/08/04 03:34:45;;;;;;;0.30;0.30;;;20.20;99.90;;;;;;4944413;28;20142;-78
2022/08/04 03:37:38;;;;;;;1.00;0.30;;;20.20;99.90;;;;;;4951183;28;20026;-79
2022/08/04 03:40:24;;;;;;;0.90;0.30;;;20.20;99.90;;;;;;4946146;28;20044;-84
2022/08/04 03:43:06;;;;;;;1.17;0.40;;;20.30;99.90;;;;;;4947735;28;20482;-82
2022/08/04 03:46:11;;;;;;;0.52;0.35;;;20.40;99.90;;;;;;4950768;28;20047;-79
2022/08/04 03:48:59;;;;;;;2.45;0.40;;;20.40;99.90;;;;;;4926878;28;20078;-79
2022/08/04 03:54:46;;;;;;;0.70;0.40;;;20.50;99.90;;;;;;4943836;28;20055;-84
2022/08/04 03:57:32;;;;;;;1.08;0.32;;;20.60;99.90;;;;;;4951473;28;20118;-81
2022/08/04 04:00:10;;;;;;;1.13;0.60;;;20.60;99.90;;;;;;4953790;28;20043;-78
2022/08/04 04:03:13;;;;;;;0.32;0.25;;;20.60;99.90;;;;;;4943339;28;20390;-77
2022/08/04 04:06:03;;;;;;;3.63;0.43;;;20.70;99.90;;;;;;4945936;28;20034;-82
2022/08/04 04:09:07;;;;;;;1.08;0.50;;;20.70;99.90;;;;;;4948159;28;20125;-76
2022/08/04 04:11:52;;;;;;;0.85;0.63;;;20.70;99.90;;;;;;4947066;28;20034;-83
2022/08/04 04:14:46;;;;;;;1.45;0.40;;;20.80;99.90;;;;;;4944963;28;20043;-83
2022/08/04 04:17:52;;;;;;;1.23;0.50;;;20.80;99.90;;;;;;4961651;28;20098;-81
2022/08/04 04:20:49;;;;;;;1.08;0.40;;;20.80;99.90;;;;;;4954056;28;20338;-81
2022/08/04 04:23:47;;;;;;;1.88;0.43;;;20.80;99.90;;;;;;4945509;28;20035;-73
2022/08/04 04:26:25;;;;;;;2.78;0.70;;;20.80;99.90;;;;;;4947815;28;21683;-85
2022/08/04 04:29:15;;;;;;;0.93;0.43;;;20.80;99.90;;;;;;4951130;28;20174;-80
2022/08/04 04:32:16;;;;;;;1.27;0.75;;;20.70;99.90;;;;;;4948314;28;20137;-80
2022/08/04 04:35:20;;;;;;;2.45;1.10;;;20.70;99.90;;;;;;4911160;28;20612;-80
2022/08/04 04:38:32;;;;;;;2.25;0.50;;;20.60;99.90;;;;;;4944845;28;20830;-80
2022/08/04 04:41:28;;;;;;;1.83;0.80;;;20.60;99.90;;;;;;4945989;28;20050;-79
2022/08/04 04:44:27;;;;;;;;;;;20.50;99.90;;;;;;4939752;28;20445;-77
2022/08/04 04:47:19;;;;;;;1.13;0.90;;;20.50;99.90;;;;;;4904272;28;19917;-76
2022/08/04 04:50:17;;;;;;;1.10;0.50;;;20.50;99.90;;;;;;4954141;28;20039;-79
2022/08/04 04:53:17;;;;;;;1.38;0.55;;;20.50;99.90;;;;;;4942197;28;20142;-81
2022/08/04 04:55:55;;;;;;;2.03;0.75;;;20.40;99.90;;;;;;4942436;28;21866;-84
2022/08/04 04:58:23;;;;;;;0.60;0.30;;;20.40;99.90;;;;;;4948090;28;20019;-83
2022/08/04 05:01:25;;;;;;;3.45;0.50;;;20.30;99.90;;;;;;4953060;28;20032;-83
2022/08/04 05:04:11;;;;;;;0.60;0.55;;;20.30;99.90;;;;;;4941891;28;20086;-80
2022/08/04 05:06:44;;;;;;;1.35;0.70;;;20.30;99.90;;;;;;4947328;28;20038;-84
2022/08/04 05:09:21;;;;;;;1.88;0.47;;;20.30;99.90;;;;;;4944718;28;20098;-83
2022/08/04 05:12:12;;;;;;;2.33;0.73;;;20.20;99.90;;;;;;4950386;28;20114;-79
2022/08/04 05:14:45;;;;;;;1.27;0.50;;;20.20;99.90;;;;;;4941259;28;20407;-79
2022/08/04 05:17:18;;;;;;;1.42;0.50;;;20.30;99.90;;;;;;4940964;28;20023;-83
2022/08/04 05:19:54;;;;;;;0.98;0.63;;;20.30;99.90;;;;;;4946824;29;20039;-78
2022/08/04 05:22:24;;;;;;;2.00;0.60;;;20.30;99.90;;;;;;4949403;28;20031;-82
2022/08/04 05:25:04;;;;;;;1.27;0.63;;;20.30;99.90;;;;;;4939682;28;20110;-78
2022/08/04 05:27:45;;;;;;;4.25;0.50;;;20.30;99.90;;;;;;4948135;28;20066;-79
2022/08/04 05:30:13;;;;;;;2.13;0.68;;;20.30;99.90;;;;;;4945435;29;20032;-81
2022/08/04 05:32:57;;;;;;;3.03;0.85;;;20.20;99.90;;;;;;4943707;28;20644;-80
2022/08/04 05:35:32;;;;;;;2.10;0.70;;;20.20;99.90;;;;;;4952946;28;20066;-81
2022/08/04 05:38:02;;;;;;;0.90;0.50;;;20.20;99.90;;;;;;4946738;28;20118;-78
2022/08/04 05:40:29;;;;;;;5.90;0.60;;;20.10;99.90;;;;;;4950440;29;20035;-80
2022/08/04 05:42:58;;;;;;;1.17;0.68;;;20.00;99.90;;;;;;4950862;28;20047;-83
2022/08/04 05:45:27;;;;;;;2.15;0.55;;;20.00;99.90;;;;;;4948125;28;20039;-82
2022/08/04 05:47:55;;;;;;;1.60;0.60;;;20.00;99.90;;;;;;4951960;28;20118;-81
2022/08/04 05:50:24;;;;;;;1.80;0.93;;;20.00;99.90;;;;;;4955260;29;20039;-84
2022/08/04 05:52:52;;;;;;;1.73;0.70;;;20.00;99.90;;;;;;4945537;28;20035;-82
2022/08/04 05:55:21;;;;;;;4.43;1.20;;;19.90;99.90;;;;;;4952057;29;20031;-82
2022/08/04 05:57:50;;;;;;;2.85;1.15;;;19.80;99.90;;;;;;4944682;28;20027;-80
2022/08/04 06:00:18;;;;;;;1.38;0.75;;;19.70;99.90;;;;;;4946766;28;20035;-78
2022/08/04 06:02:51;;;;;;;2.33;0.60;;;19.60;99.90;;;;;;4946524;28;20387;-79
2022/08/04 06:05:19;;;;;;;2.45;0.80;;;19.50;99.90;;;;;;4943686;29;20032;-79
2022/08/04 06:07:48;;;;;;;2.80;0.70;;;19.40;99.90;;;;;;4933590;29;20031;-78
2022/08/04 06:10:16;;;;;;;1.77;0.73;;;19.40;99.90;;;;;;4952166;28;20031;-78
2022/08/04 06:12:58;;;;;;;3.08;1.40;;;19.30;99.90;;;;;;4952444;28;20082;-79
2022/08/04 06:15:27;;;;;;;3.28;1.48;;;19.10;99.90;;;;;;4947313;28;20035;-78
2022/08/04 06:18:00;;;;;;;1.60;0.43;;;19.00;99.90;;;;;;4945314;28;20098;-79
2022/08/04 06:20:32;;;;;;;2.08;0.85;;;18.90;99.90;;;;;;4946729;28;20035;-77
2022/08/04 06:23:10;;;;;;;0.93;0.50;;;18.70;99.90;;;;;;4948730;28;20039;-80
2022/08/04 06:25:51;;;;;;;2.97;1.13;;;18.60;99.90;;;;;;4952741;29;20033;-80
2022/08/04 06:28:19;;;;;;;3.85;0.80;;;18.60;99.90;;;;;;4949728;28;20629;-78
2022/08/04 06:30:49;;;;;;;1.85;1.00;;;18.50;99.90;;;;;;4951448;29;20047;-79
2022/08/04 06:36:16;;;;;;;1.70;1.10;;;18.40;99.90;;;;;;4938769;29;20378;-79
2022/08/04 06:38:44;;;;;;;1.98;0.80;;;18.40;99.90;;;;;;4951614;28;20031;-81
2022/08/04 06:41:13;;;;;;;2.88;1.13;;;18.40;99.90;;;;;;4950822;28;20085;-82
2022/08/04 06:43:40;;;;;;;4.22;1.23;;;18.50;99.90;;;;;;4948263;28;20027;-80
2022/08/04 06:46:09;;;;;;;2.80;1.10;;;18.50;99.90;;;;;;4952458;28;20110;-80
2022/08/04 06:48:37;;;;;;;1.95;0.75;;;18.40;99.90;;;;;;4951207;28;20029;-81
2022/08/04 06:51:05;;;;;;;1.30;0.77;;;18.40;99.90;;;;;;4952471;29;20039;-82
2022/08/04 06:53:33;;;;;;;1.52;0.85;;;18.40;99.90;;;;;;4950972;28;20470;-80
2022/08/04 06:56:02;;;;;;;4.85;1.40;;;18.40;99.90;;;;;;4949000;28;20035;-81
2022/08/04 06:58:32;;;;;;;2.45;1.27;;;18.30;99.90;;;;;;4946388;28;20032;-79
2022/08/04 07:01:01;;;;;;;2.60;1.30;;;18.20;99.90;;;;;;4948102;28;20023;-80
2022/08/04 07:03:28;;;;;;;1.40;0.98;;;18.00;99.90;;;;;;4949859;28;21445;-80
2022/08/04 07:05:56;;;;;;;3.42;1.25;;;17.90;99.90;;;;;;4948562;29;20549;-81
2022/08/04 07:08:24;;;;;;;4.47;1.20;;;17.80;99.90;;;;;;4952665;28;20370;-79
2022/08/04 07:10:52;;;;;;;3.17;1.30;;;17.70;99.90;;;;;;4952713;29;20058;-81
2022/08/04 07:13:21;;;;;;;2.80;1.15;;;17.60;99.90;;;;;;4948139;28;20051;-81
2022/08/04 07:15:49;;;;;;;1.98;1.00;;;17.50;99.90;;;;;;4946874;29;20031;-78
2022/08/04 07:18:17;;;;;;;3.72;0.93;;;17.50;99.90;;;;;;4952099;28;20074;-78
2022/08/04 07:20:46;;;;;;;1.77;1.13;;;17.50;99.90;;;;;;4949568;28;20063;-80
2022/08/04 07:23:22;;;;;;;4.88;1.48;;;17.50;99.90;;;;;;4948941;28;20492;-77
2022/08/04 07:25:57;;;;;;;3.90;1.60;;;17.50;99.90;;;;;;4951783;29;20122;-78
2022/08/04 07:28:29;;;;;;;5.80;1.42;;;17.50;99.90;;;;;;4948722;28;20479;-82
2022/08/04 07:30:58;;;;;;;4.85;1.40;;;17.40;99.90;;;;;;4952336;29;20031;-80
2022/08/04 07:33:27;;;;;;;3.58;1.17;;;17.40;99.90;;;;;;4950171;28;20043;-78
2022/08/04 07:35:56;;;;;;;4.05;1.17;;;17.30;99.90;;;;;;4949196;29;20042;-79
2022/08/04 07:39:00;;;;;;;2.78;1.20;;;17.30;99.90;;;;;;4945076;29;20036;-80
2022/08/04 07:41:28;;;;;;;2.10;1.23;;;17.40;99.90;;;;;;4937705;29;20038;-79
2022/08/04 07:44:32;;;;;;;3.53;1.58;;;17.30;99.90;;;;;;4948696;28;20478;-78
2022/08/04 07:53:26;;;;;;;3.45;1.02;;;17.30;99.90;;;;;;4947046;28;20046;-76
2022/08/04 07:55:55;;;;;;;2.28;1.13;;;17.20;99.90;;;;;;4945940;29;20035;-76
2022/08/04 07:58:40;;;;;;;1.15;1.02;;;17.20;99.90;;;;;;4946936;28;20043;-76
2022/08/04 08:01:10;;;;;;;5.70;2.80;;;17.20;99.90;;;;;;4950373;28;20090;-77
2022/08/04 08:03:38;;;;;;;4.13;1.73;;;17.10;99.90;;;;;;4948804;28;20130;-74
2022/08/04 08:06:06;;;;;;;2.53;1.60;;;17.10;99.90;;;;;;4946097;29;20126;-74
2022/08/04 08:08:36;;;;;;;3.42;1.30;;;17.00;99.90;;;;;;4947601;28;20098;-74
2022/08/04 08:11:05;;;;;;;4.78;1.73;;;16.90;99.90;;;;;;4949421;28;20028;-77
2022/08/04 08:13:33;;;;;;;4.28;1.50;;;16.90;99.90;;;;;;4940747;28;20061;-77
2022/08/04 08:16:01;;;;;;;2.75;1.42;;;16.90;99.90;;;;;;4946779;28;20488;-82
2022/08/04 08:18:30;;;;;;;2.35;1.42;;;16.90;99.90;;;;;;4949614;29;20062;-76
2022/08/04 08:20:58;;;;;;;3.83;1.25;;;16.90;99.90;;;;;;4940927;28;20034;-75
2022/08/04 08:23:29;;;;;;;1.65;1.33;;;16.80;99.90;;;;;;4939903;28;20039;-77
2022/08/04 08:25:58;;;;;;;4.30;1.92;;;16.80;99.90;;;;;;4931977;29;20552;-81
2022/08/04 08:28:26;;;;;;;3.58;1.50;;;16.80;99.90;;;;;;4942658;29;20039;-75
2022/08/04 08:30:53;;;;;;;3.92;1.58;;;16.80;99.90;;;;;;4940881;29;20110;-77
2022/08/04 08:33:23;;;;;;;3.22;1.20;;;16.80;99.90;;;;;;4937861;28;20159;-79
2022/08/04 08:36:10;;;;;;;5.13;1.10;;;16.80;99.90;;;;;;4939224;29;20094;-76
2022/08/04 08:39:10;;;;;;;3.05;1.00;;;16.80;99.90;;;;;;4899813;28;20545;-77
2022/08/04 08:42:08;;;;;;;2.88;1.75;;;16.80;99.90;;;;;;4895257;29;20086;-77
2022/08/04 08:44:44;;;;;;;2.85;1.10;;;16.80;99.90;;;;;;4939725;28;20372;-73
2022/08/04 08:47:35;;;;;;;2.25;1.13;;;16.80;99.90;;;;;;4933180;28;20043;-78
2022/08/04 08:50:47;;;;;;;2.03;1.05;;;16.80;99.90;;;;;;4939653;29;20102;-77
2022/08/04 08:53:20;;;;;;;2.08;1.17;;;16.80;99.90;;;;;;4936189;29;20057;-77
2022/08/04 08:56:21;;;;;;;3.35;1.25;;;16.80;99.90;;;;;;4942943;29;20470;-77
2022/08/04 08:58:48;;;;;;;2.67;0.98;;;16.80;99.90;;;;;;4940838;29;20198;-76
2022/08/04 09:01:28;;;;;;;3.00;0.73;;;16.80;99.90;;;;;;4941144;29;20027;-75
2022/08/04 09:04:15;;;;;;;1.30;0.70;;;16.80;99.90;;;;;;4940704;28;20097;-78
2022/08/04 09:07:00;;;;;;;1.63;0.90;;;16.80;99.90;;;;;;4950571;29;20027;-81
2022/08/04 09:09:43;;;;;;;1.27;0.83;;;16.70;99.90;;;;;;4947567;28;20046;-77
2022/08/04 09:12:24;;;;;;;1.60;0.93;;;16.70;99.90;;;;;;4948856;29;20106;-77
2022/08/04 09:15:18;;;;;;;3.88;1.00;;;16.70;99.90;;;;;;4948478;28;20043;-78
2022/08/04 09:17:55;;;;;;;3.17;0.68;;;16.80;99.90;;;;;;4932164;29;20024;-80
2022/08/04 09:20:38;;;;;;;2.72;0.60;;;16.80;99.90;;;;;;4945253;28;20031;-75
2022/08/04 09:23:20;;;;;;;0.95;0.50;;;16.80;99.90;;;;;;4947471;28;20038;-80
2022/08/04 09:25:58;;;;;;;1.23;0.88;;;16.80;99.90;;;;;;4939293;28;20043;-78
2022/08/04 09:28:30;;;;;;;1.63;0.70;;;16.80;99.90;;;;;;4935765;28;20027;-75
2022/08/04 09:31:06;;;;;;;1.00;0.50;;;16.70;99.90;;;;;;4948487;29;20086;-79
2022/08/04 09:34:11;;;;;;;2.50;0.40;;;16.80;99.90;;;;;;4943391;29;20050;-79
2022/08/04 09:36:52;;;;;;;1.70;0.65;;;16.80;99.90;;;;;;4926866;29;20135;-79
2022/08/04 09:39:55;;;;;;;0.90;0.55;;;16.70;99.90;;;;;;4940117;28;20032;-79
2022/08/04 09:42:50;;;;;;;1.17;0.70;;;16.70;99.90;;;;;;4846105;29;20069;-77
2022/08/04 09:45:35;;;;;;;0.77;0.40;;;16.70;99.90;;;;;;4948311;28;20031;-78
2022/08/04 09:48:09;;;;;;;0.98;0.52;;;16.70;99.90;;;;;;4941824;29;20027;-77
2022/08/04 09:50:44;;;;;;;0.52;0.30;;;16.80;99.90;;;;;;4944340;29;20398;-83
2022/08/04 09:53:20;;;;;;;1.67;0.65;;;16.80;99.90;;;;;;4947468;28;20063;-83
2022/08/04 09:55:53;;;;;;;1.00;0.30;;;16.80;99.90;;;;;;4945829;29;20031;-81
2022/08/04 09:58:47;;;;;;;1.27;0.28;;;16.80;99.90;;;;;;4943220;28;20177;-80
2022/08/04 10:01:23;;;;;;;1.08;0.40;;;16.80;99.90;;;;;;4941630;28;20431;-85
2022/08/04 10:03:59;;;;;;;0.45;0.38;;;16.80;99.90;;;;;;4939069;29;20398;-82
2022/08/04 10:06:44;;;;;;;;;;;16.80;99.90;;;;;;4949747;29;20114;-80
2022/08/04 10:09:33;;;;;;;1.98;0.30;;;16.80;99.90;;;;;;4945141;28;19918;-80
2022/08/04 10:12:16;;;;;;;0.57;0.30;;;16.80;99.90;;;;;;4947550;28;20024;-81
2022/08/04 10:15:02;;;;;;;0.95;0.50;;;16.80;99.90;;;;;;4948282;28;20035;-80
2022/08/04 10:17:50;;;;;;;1.45;0.50;;;16.90;99.90;;;;;;4949081;28;20027;-77
2022/08/04 10:20:42;;;;;;;0.52;0.45;;;16.90;99.90;;;;;;4940580;28;20046;-80
2022/08/04 10:23:15;;;;;;;0.70;0.30;;;16.80;99.90;;;;;;4942818;29;20027;-84
2022/08/04 10:26:01;;;;;;;1.73;0.40;;;16.90;99.90;;;;;;4943446;28;20058;-78
2022/08/04 10:28:32;;;;;;;0.25;0.17;;;16.90;99.90;;;;;;4947830;28;20066;-78
2022/08/04 10:31:09;;;;;;;0.50;0.40;;;16.90;99.90;;;;;;4941656;28;20043;-81
2022/08/04 10:33:55;;;;;;;1.65;0.50;;;16.90;99.90;;;;;;4944717;28;20379;-76
2022/08/04 10:36:31;;;;;;;1.73;0.30;;;16.90;99.90;;;;;;4942641;29;20367;-76
2022/08/04 10:39:10;;;;;;;0.88;0.30;;;16.90;99.90;;;;;;4942621;28;20036;-75
2022/08/04 10:41:45;;;;;;;0.40;0.20;;;16.90;99.90;;;;;;4943528;28;20038;-76
2022/08/04 10:44:31;;;;;;;1.05;0.30;;;16.90;99.90;;;;;;4945039;29;20032;-77
2022/08/04 10:47:02;;;;;;;0.87;0.40;;;16.80;99.90;;;;;;4942096;29;20027;-78
2022/08/04 10:49:45;;;;;;;0.73;0.30;;;16.90;99.90;;;;;;4944165;28;20046;-77
2022/08/04 10:52:31;;;;;;;0.65;0.20;;;16.80;99.90;;;;;;4940834;29;21545;-76
2022/08/04 10:55:18;;;;;;;0.52;0.20;;;16.90;99.90;;;;;;4943251;29;20069;-77
2022/08/04 10:58:05;;;;;;;1.88;0.30;;;16.80;99.90;;;;;;4944199;29;20031;-75
2022/08/04 11:00:38;;;;;;;0.80;0.30;;;16.80;99.90;;;;;;4943273;28;20035;-77
2022/08/04 11:03:08;;;;;;;0.20;0.20;;;16.90;99.90;;;;;;4941799;28;20031;-75
2022/08/04 11:05:42;;;;;;;0.40;0.20;;;16.80;99.90;;;;;;4948048;29;20031;-76
2022/08/04 11:08:24;;;;;;;0.40;0.22;;;16.90;99.90;;;;;;4939126;29;20474;-78
2022/08/04 11:11:00;;;;;;;0.28;0.20;;;16.90;99.90;;;;;;4940531;29;20027;-79
2022/08/04 11:13:43;;;;;;;0.20;0.20;;;16.90;99.90;;;;;;4940112;29;20042;-75
2022/08/04 11:16:27;;;;;;;1.25;0.28;;;17.00;99.90;;;;;;4946897;28;20130;-80
2022/08/04 11:19:07;;;;;;;0.60;0.13;;;16.90;99.90;;;;;;4941623;28;20062;-75
2022/08/04 11:21:48;;;;;;;0.30;0.10;;;16.90;99.90;;;;;;4943579;29;20102;-77
2022/08/04 11:24:30;;;;;;;1.10;0.28;;;16.90;99.90;;;;;;4939920;29;21513;-79
2022/08/04 11:27:06;;;;;;;0.20;0.20;;;16.90;99.90;;;;;;4940416;28;20114;-76
2022/08/04 11:29:51;;;;;;;1.33;0.30;;;16.80;99.90;;;;;;4941673;29;20038;-77
2022/08/04 11:32:24;;;;;;;0.20;0.20;;;16.80;99.90;;;;;;4939569;28;20130;-76
2022/08/04 11:34:57;;;;;;;0.50;0.40;;;16.70;99.90;;;;;;4944516;29;20566;-76
2022/08/04 11:37:32;;;;;;;0.50;0.30;;;16.80;99.90;;;;;;4943718;29;20173;-77
2022/08/04 11:40:08;;;;;;;0.63;0.63;;;16.70;99.90;;;;;;4940583;29;20582;-77
2022/08/04 11:42:50;;;;;;;0.68;0.35;;;16.60;99.90;;;;;;4942196;29;20042;-77
2022/08/04 11:45:30;;;;;;;0.40;0.20;;;16.70;99.90;;;;;;4941283;29;20154;-75
2022/08/04 11:48:08;;;;;;;0.35;0.10;;;16.70;99.90;;;;;;4939860;29;20043;-76
2022/08/04 11:50:41;;;;;;;2.10;0.40;;;16.70;99.90;;;;;;4943874;29;20487;-79
2022/08/04 11:53:15;;;;;;;0.30;0.30;;;16.70;99.90;;;;;;4946815;29;20051;-79
2022/08/04 11:55:48;;;;;;;0.45;0.25;;;16.70;99.90;;;;;;4939429;28;20483;-80
2022/08/04 11:58:16;;;;;;;0.60;0.32;;;16.60;99.90;;;;;;4940996;29;20398;-75
2022/08/04 12:01:14;;;;;;;1.25;0.40;;;16.60;99.90;;;;;;4942373;29;20023;-76
2022/08/04 12:03:59;;;;;;;0.40;0.30;;;16.60;99.90;;;;;;4930925;29;20035;-73
2022/08/04 12:06:44;;;;;;;0.65;0.30;;;16.50;99.90;;;;;;4945073;29;20624;-74
2022/08/04 12:09:41;;;;;;;0.63;0.52;;;16.50;99.90;;;;;;4944356;29;20035;-76
2022/08/04 12:12:12;;;;;;;0.82;0.20;;;16.40;99.90;;;;;;4939557;29;20055;-75
2022/08/04 12:15:19;;;;;;;0.65;0.32;;;16.50;99.90;;;;;;4944056;28;20051;-80
2022/08/04 12:18:08;;;;;;;0.50;0.20;;;16.50;99.90;;;;;;4903082;28;20038;-74
2022/08/04 12:20:42;;;;;;;0.73;0.60;;;16.50;99.90;;;;;;4950233;29;20033;-78
2022/08/04 12:23:34;;;;;;;0.30;0.20;;;16.50;99.90;;;;;;4951555;29;20042;-80
2022/08/04 12:26:16;;;;;;;0.68;0.35;;;16.60;99.90;;;;;;4950442;28;20115;-74
2022/08/04 12:28:47;;;;;;;0.93;0.50;;;16.50;99.90;;;;;;4947865;29;20406;-77
2022/08/04 12:31:46;;;;;;;0.43;0.20;;;16.60;99.90;;;;;;4952361;29;20110;-80
2022/08/04 12:34:47;;;;;;;0.20;0.20;;;16.60;99.90;;;;;;4943243;28;20105;-80
2022/08/04 12:37:41;;;;;;;0.35;0.20;;;16.60;99.90;;;;;;4934262;29;20281;-80
2022/08/04 12:40:25;;;;;;;0.85;0.50;;;16.50;99.90;;;;;;4943494;28;20055;-76
2022/08/04 12:42:57;;;;;;;1.88;0.50;;;16.60;99.90;;;;;;4940842;29;20028;-78
2022/08/04 12:45:25;;;;;;;0.55;0.30;;;16.60;99.90;;;;;;4949938;28;20067;-77
2022/08/04 12:47:58;;;;;;;0.68;0.20;;;16.60;99.90;;;;;;4950896;28;20489;-76
2022/08/04 12:50:27;;;;;;;0.75;0.28;;;16.60;99.90;;;;;;4934028;28;20137;-75
2022/08/04 12:52:58;;;;;;;1.15;0.40;;;16.60;99.90;;;;;;4936639;28;20085;-78
2022/08/04 12:55:32;;;;;;;0.40;0.30;;;16.60;99.90;;;;;;4943536;28;20059;-73
2022/08/04 12:58:01;;;;;;;0.88;0.50;;;16.60;99.90;;;;;;4949617;28;20031;-74
2022/08/04 13:00:36;;;;;;;0.65;0.40;;;16.60;99.90;;;;;;4950139;28;20438;-77
2022/08/04 13:03:14;;;;;;;0.77;0.38;;;16.50;99.90;;;;;;4941292;29;20032;-79
2022/08/04 13:05:43;;;;;;;0.45;0.28;;;16.50;99.90;;;;;;4949251;28;20063;-74
2022/08/04 13:08:12;;;;;;;0.75;0.50;;;16.50;99.90;;;;;;4948938;29;20094;-73
2022/08/04 13:10:43;;;;;;;0.63;0.35;;;16.50;99.90;;;;;;4952213;29;20030;-74
2022/08/04 13:13:19;;;;;;;0.38;0.30;;;16.60;99.90;;;;;;4939383;28;20044;-77
2022/08/04 13:16:00;;;;;;;1.17;0.40;;;16.60;99.90;;;;;;4949205;29;20027;-73
2022/08/04 13:18:31;;;;;;;0.45;0.20;;;16.50;99.90;;;;;;4949518;29;20130;-74
2022/08/04 13:21:13;;;;;;;0.60;0.30;;;16.50;99.90;;;;;;4949445;28;20512;-74
2022/08/04 13:23:44;;;;;;;2.05;0.63;;;16.50;99.90;;;;;;4946260;28;20082;-75
2022/08/04 13:26:14;;;;;;;1.05;0.57;;;16.50;99.90;;;;;;4936178;28;20020;-74
2022/08/04 13:28:45;;;;;;;1.80;0.30;;;16.60;99.90;;;;;;4939279;28;20078;-75
2022/08/04 13:31:21;;;;;;;0.70;0.30;;;16.60;99.90;;;;;;4933829;29;20028;-75
2022/08/04 13:33:50;;;;;;;;;;;16.60;99.90;;;;;;4940490;29;20110;-76
2022/08/04 13:36:19;;;;;;;0.50;0.40;;;16.60;99.90;;;;;;4933648;29;19911;-75
2022/08/04 13:39:01;;;;;;;0.20;0.13;;;16.60;99.90;;;;;;4950291;28;20031;-78
2022/08/04 13:41:30;;;;;;;0.68;0.30;;;16.70;99.90;;;;;;4948094;28;20039;-75
2022/08/04 13:44:02;;;;;;;0.30;0.20;;;16.80;99.90;;;;;;4944418;29;20065;-75
2022/08/04 13:46:33;;;;;;;0.10;0.10;;;16.80;99.90;;;;;;4951439;28;20444;-74
2022/08/04 13:49:07;;;;;;;0.30;0.30;;;16.80;99.90;;;;;;4951223;28;20475;-75
2022/08/04 13:51:36;;;;;;;0.95;0.30;;;16.80;99.90;;;;;;4953072;29;20089;-76
2022/08/04 13:54:04;;;;;;;0.32;0.30;;;16.80;99.90;;;;;;4942581;28;20055;-85
2022/08/04 13:56:49;;;;;;;0.20;0.10;;;16.80;99.90;;;;;;4947591;28;20031;-83
2022/08/04 13:59:18;;;;;;;0.30;0.20;;;16.90;99.90;;;;;;4949491;29;20114;-78
2022/08/04 14:02:04;;;;;;;1.70;0.47;;;17.00;99.90;;;;;;4956932;28;20095;-80